sensor_id;sensor_type;location;lat;lon;timestamp;pressure;altitude;pressure_sealevel;temperature;humidity
21273;BME280;36726;52.328;10.552;2022-10-20T00:00:18;101467.56;;;6.82;97.41
21273;BME280;36726;52.328;10.552;2022-10-20T00:02:44;101470.19;;;6.82;97.92
21273;BME280;36726;52.328;10.552;2022-10-20T00:05:11;101466.59;;;6.80;97.81
21273;BME280;36726;52.328;10.552;2022-10-20T00:07:38;101464.66;;;6.76;97.48
21273;BME280;36726;52.328;10.552;2022-10-20T00:10:05;101463.81;;;6.77;98.00
21273;BME280;36726;52.328;10.552;2022-10-20T00:12:31;101454.94;;;6.75;98.19
21273;BME280;36726;52.328;10.552;2022-10-20T00:14:58;101442.66;;;6.74;98.01
21273;BME280;36726;52.328;10.552;2022-10-20T00:17:25;101451.28;;;6.72;97.84
21273;BME280;36726;52.328;10.552;2022-10-20T00:19:52;101445.06;;;6.70;97.74
21273;BME280;36726;52.328;10.552;2022-10-20T00:22:18;101458.16;;;6.68;98.11
21273;BME280;36726;52.328;10.552;2022-10-20T00:24:45;101457.28;;;6.68;98.24
21273;BME280;36726;52.328;10.552;2022-10-20T00:27:11;101449.31;;;6.66;97.82
21273;BME280;36726;52.328;10.552;2022-10-20T00:29:38;101431.75;;;6.65;98.70
21273;BME280;36726;52.328;10.552;2022-10-20T00:32:04;101418.53;;;6.64;98.37
21273;BME280;36726;52.328;10.552;2022-10-20T00:34:31;101412.38;;;6.63;98.41
21273;BME280;36726;52.328;10.552;2022-10-20T00:36:58;101403.53;;;6.61;98.22
21273;BME280;36726;52.328;10.552;2022-10-20T00:39:25;101399.94;;;6.59;98.62
21273;BME280;36726;52.328;10.552;2022-10-20T00:41:51;101397.19;;;6.56;98.38
21273;BME280;36726;52.328;10.552;2022-10-20T00:44:50;101395.31;;;6.54;99.07
21273;BME280;36726;52.328;10.552;2022-10-20T00:50:07;101389.19;;;6.53;98.92
21273;BME280;36726;52.328;10.552;2022-10-20T00:52:36;101396.13;;;6.51;98.85
21273;BME280;36726;52.328;10.552;2022-10-20T00:55:06;101390.69;;;6.48;99.02
21273;BME280;36726;52.328;10.552;2022-10-20T00:57:34;101388.94;;;6.47;99.14
21273;BME280;36726;52.328;10.552;2022-10-20T01:00:02;101383.72;;;6.49;99.64
21273;BME280;36726;52.328;10.552;2022-10-20T01:02:29;101379.38;;;6.49;99.58
21273;BME280;36726;52.328;10.552;2022-10-20T01:04:56;101369.78;;;6.50;99.99
21273;BME280;36726;52.328;10.552;2022-10-20T01:07:23;101370.72;;;6.52;99.86
21273;BME280;36726;52.328;10.552;2022-10-20T01:09:49;101362.13;;;6.56;100.00
21273;BME280;36726;52.328;10.552;2022-10-20T01:12:29;101351.66;;;6.57;100.00
21273;BME280;36726;52.328;10.552;2022-10-20T01:17:44;101334.06;;;6.55;100.00
21273;BME280;36726;52.328;10.552;2022-10-20T01:25:29;101340.91;;;6.51;99.82
21273;BME280;36726;52.328;10.552;2022-10-20T01:28:06;101335.66;;;6.51;99.97
21273;BME280;36726;52.328;10.552;2022-10-20T01:30:41;101327.78;;;6.51;100.00
21273;BME280;36726;52.328;10.552;2022-10-20T01:33:18;101332.25;;;6.54;100.00
21273;BME280;36726;52.328;10.552;2022-10-20T01:38:49;101334.97;;;6.55;100.00
21273;BME280;36726;52.328;10.552;2022-10-20T01:43:54;101326.13;;;6.53;99.97
21273;BME280;36726;52.328;10.552;2022-10-20T01:46:23;101327.91;;;6.54;100.00
21273;BME280;36726;52.328;10.552;2022-10-20T01:48:50;101322.63;;;6.54;100.00
21273;BME280;36726;52.328;10.552;2022-10-20T01:51:17;101320.00;;;6.54;99.98
21273;BME280;36726;52.328;10.552;2022-10-20T01:53:43;101319.19;;;6.55;100.00
21273;BME280;36726;52.328;10.552;2022-10-20T01:56:17;101319.19;;;6.55;100.00
21273;BME280;36726;52.328;10.552;2022-10-20T01:59:13;101328.75;;;6.53;100.00
21273;BME280;36726;52.328;10.552;2022-10-20T02:01:57;101319.91;;;6.51;100.00
21273;BME280;36726;52.328;10.552;2022-10-20T02:04:32;101318.94;;;6.49;100.00
21273;BME280;36726;52.328;10.552;2022-10-20T02:07:16;101318.88;;;6.48;100.00
21273;BME280;36726;52.328;10.552;2022-10-20T02:09:50;101314.50;;;6.48;100.00
21273;BME280;36726;52.328;10.552;2022-10-20T02:12:22;101309.19;;;6.47;100.00
21273;BME280;36726;52.328;10.552;2022-10-20T02:14:50;101317.91;;;6.46;100.00
21273;BME280;36726;52.328;10.552;2022-10-20T02:17:18;101317.81;;;6.43;100.00
21273;BME280;36726;52.328;10.552;2022-10-20T02:19:48;101321.25;;;6.42;100.00
21273;BME280;36726;52.328;10.552;2022-10-20T02:22:18;101320.34;;;6.41;100.00
21273;BME280;36726;52.328;10.552;2022-10-20T02:24:45;101307.06;;;6.38;100.00
21273;BME280;36726;52.328;10.552;2022-10-20T02:27:15;101311.38;;;6.36;100.00
21273;BME280;36726;52.328;10.552;2022-10-20T02:29:46;101292.03;;;6.34;100.00
21273;BME280;36726;52.328;10.552;2022-10-20T02:32:16;101279.72;;;6.33;100.00
21273;BME280;36726;52.328;10.552;2022-10-20T02:34:43;101268.31;;;6.32;100.00
21273;BME280;36726;52.328;10.552;2022-10-20T02:37:10;101267.50;;;6.34;100.00
21273;BME280;36726;52.328;10.552;2022-10-20T02:39:36;101267.41;;;6.32;100.00
21273;BME280;36726;52.328;10.552;2022-10-20T02:42:03;101265.50;;;6.28;100.00
21273;BME280;36726;52.328;10.552;2022-10-20T02:44:30;101269.81;;;6.26;100.00
21273;BME280;36726;52.328;10.552;2022-10-20T02:46:56;101268.97;;;6.27;100.00
21273;BME280;36726;52.328;10.552;2022-10-20T02:49:23;101278.66;;;6.28;100.00
21273;BME280;36726;52.328;10.552;2022-10-20T02:51:50;101276.78;;;6.25;100.00
21273;BME280;36726;52.328;10.552;2022-10-20T02:54:17;101271.53;;;6.25;100.00
21273;BME280;36726;52.328;10.552;2022-10-20T02:56:43;101274.09;;;6.24;100.00
21273;BME280;36726;52.328;10.552;2022-10-20T02:59:14;101267.88;;;6.22;100.00
21273;BME280;36726;52.328;10.552;2022-10-20T03:01:42;101272.16;;;6.20;100.00
21273;BME280;36726;52.328;10.552;2022-10-20T03:04:11;101274.63;;;6.15;100.00
21273;BME280;36726;52.328;10.552;2022-10-20T03:06:39;101276.28;;;6.13;100.00
21273;BME280;36726;52.328;10.552;2022-10-20T03:09:06;101273.59;;;6.12;100.00
21273;BME280;36726;52.328;10.552;2022-10-20T03:11:33;101263.97;;;6.12;100.00
21273;BME280;36726;52.328;10.552;2022-10-20T03:14:00;101260.53;;;6.13;100.00
21273;BME280;36726;52.328;10.552;2022-10-20T03:16:26;101264.81;;;6.11;100.00
21273;BME280;36726;52.328;10.552;2022-10-20T03:18:53;101252.44;;;6.09;100.00
21273;BME280;36726;52.328;10.552;2022-10-20T03:21:24;101248.91;;;6.08;100.00
21273;BME280;36726;52.328;10.552;2022-10-20T03:23:50;101253.28;;;6.08;100.00
21273;BME280;36726;52.328;10.552;2022-10-20T03:26:17;101244.44;;;6.06;100.00
21273;BME280;36726;52.328;10.552;2022-10-20T03:28:43;101240.84;;;6.04;100.00
21273;BME280;36726;52.328;10.552;2022-10-20T03:31:10;101234.66;;;6.02;100.00
21273;BME280;36726;52.328;10.552;2022-10-20T03:33:37;101229.28;;;5.99;100.00
21273;BME280;36726;52.328;10.552;2022-10-20T03:36:04;101230.94;;;5.97;100.00
21273;BME280;36726;52.328;10.552;2022-10-20T03:38:31;101231.75;;;5.96;100.00
21273;BME280;36726;52.328;10.552;2022-10-20T03:40:58;101223.88;;;5.96;100.00
21273;BME280;36726;52.328;10.552;2022-10-20T03:43:24;101211.59;;;5.95;100.00
21273;BME280;36726;52.328;10.552;2022-10-20T03:46:00;101215.06;;;5.94;100.00
21273;BME280;36726;52.328;10.552;2022-10-20T03:48:28;101220.31;;;5.94;100.00
21273;BME280;36726;52.328;10.552;2022-10-20T03:50:55;101223.75;;;5.93;100.00
21273;BME280;36726;52.328;10.552;2022-10-20T03:53:22;101223.75;;;5.93;100.00
21273;BME280;36726;52.328;10.552;2022-10-20T03:55:48;101219.41;;;5.93;100.00
21273;BME280;36726;52.328;10.552;2022-10-20T03:58:15;101214.22;;;5.95;100.00
21273;BME280;36726;52.328;10.552;2022-10-20T04:00:42;101208.06;;;5.94;100.00
21273;BME280;36726;52.328;10.552;2022-10-20T04:03:08;101199.38;;;5.95;100.00
21273;BME280;36726;52.328;10.552;2022-10-20T04:05:35;101199.44;;;5.97;100.00
21273;BME280;36726;52.328;10.552;2022-10-20T04:08:01;101196.75;;;5.95;100.00
21273;BME280;36726;52.328;10.552;2022-10-20T04:10:29;101197.63;;;5.96;100.00
21273;BME280;36726;52.328;10.552;2022-10-20T04:12:57;101196.75;;;5.95;100.00
21273;BME280;36726;52.328;10.552;2022-10-20T04:15:24;101190.59;;;5.95;100.00
21273;BME280;36726;52.328;10.552;2022-10-20T04:17:51;101187.06;;;5.94;100.00
21273;BME280;36726;52.328;10.552;2022-10-20T04:20:17;101186.19;;;5.94;100.00
21273;BME280;36726;52.328;10.552;2022-10-20T04:22:44;101175.69;;;5.94;100.00
21273;BME280;36726;52.328;10.552;2022-10-20T04:25:11;101171.25;;;5.93;100.00
21273;BME280;36726;52.328;10.552;2022-10-20T04:27:40;101173.94;;;5.94;100.00
21273;BME280;36726;52.328;10.552;2022-10-20T04:30:08;101171.31;;;5.94;100.00
21273;BME280;36726;52.328;10.552;2022-10-20T04:32:35;101166.97;;;5.95;100.00
21273;BME280;36726;52.328;10.552;2022-10-20T04:35:02;101167.00;;;5.96;100.00
21273;BME280;36726;52.328;10.552;2022-10-20T04:37:29;101155.59;;;5.96;100.00
21273;BME280;36726;52.328;10.552;2022-10-20T04:39:55;101162.63;;;5.95;100.00
21273;BME280;36726;52.328;10.552;2022-10-20T04:42:23;101158.19;;;5.94;100.00
21273;BME280;36726;52.328;10.552;2022-10-20T04:44:49;101162.56;;;5.94;100.00
21273;BME280;36726;52.328;10.552;2022-10-20T04:47:16;101158.06;;;5.91;100.00
21273;BME280;36726;52.328;10.552;2022-10-20T04:49:43;101159.84;;;5.92;100.00
21273;BME280;36726;52.328;10.552;2022-10-20T04:52:09;101151.91;;;5.91;100.00
21273;BME280;36726;52.328;10.552;2022-10-20T04:54:36;101150.13;;;5.90;100.00
21273;BME280;36726;52.328;10.552;2022-10-20T04:57:03;101140.59;;;5.92;100.00
21273;BME280;36726;52.328;10.552;2022-10-20T04:59:31;101137.81;;;5.89;100.00
21273;BME280;36726;52.328;10.552;2022-10-20T05:01:58;101132.56;;;5.89;100.00
21273;BME280;36726;52.328;10.552;2022-10-20T05:04:24;101122.06;;;5.89;100.00
21273;BME280;36726;52.328;10.552;2022-10-20T05:06:51;101116.88;;;5.90;100.00
21273;BME280;36726;52.328;10.552;2022-10-20T05:09:17;101113.38;;;5.90;100.00
21273;BME280;36726;52.328;10.552;2022-10-20T05:11:44;101110.75;;;5.90;100.00
21273;BME280;36726;52.328;10.552;2022-10-20T05:14:12;101109.78;;;5.88;100.00
21273;BME280;36726;52.328;10.552;2022-10-20T05:16:38;101109.78;;;5.88;100.00
21273;BME280;36726;52.328;10.552;2022-10-20T05:19:05;101099.28;;;5.88;100.00
21273;BME280;36726;52.328;10.552;2022-10-20T05:21:32;101086.94;;;5.85;100.00
21273;BME280;36726;52.328;10.552;2022-10-20T05:24:00;101086.94;;;5.85;100.00
21273;BME280;36726;52.328;10.552;2022-10-20T05:26:28;101086.06;;;5.85;100.00
21273;BME280;36726;52.328;10.552;2022-10-20T05:28:57;101088.69;;;5.85;100.00
21273;BME280;36726;52.328;10.552;2022-10-20T05:31:24;101086.94;;;5.85;100.00
21273;BME280;36726;52.328;10.552;2022-10-20T05:33:53;101087.78;;;5.84;100.00
21273;BME280;36726;52.328;10.552;2022-10-20T05:36:24;101087.88;;;5.87;100.00
21273;BME280;36726;52.328;10.552;2022-10-20T05:38:52;101087.94;;;5.89;100.00
21273;BME280;36726;52.328;10.552;2022-10-20T05:41:24;101087.13;;;5.90;100.00
21273;BME280;36726;52.328;10.552;2022-10-20T05:43:56;101084.50;;;5.90;100.00
21273;BME280;36726;52.328;10.552;2022-10-20T05:46:24;101091.56;;;5.92;100.00
21273;BME280;36726;52.328;10.552;2022-10-20T05:48:55;101086.41;;;5.94;100.00
21273;BME280;36726;52.328;10.552;2022-10-20T05:51:25;101087.34;;;5.96;100.00
21273;BME280;36726;52.328;10.552;2022-10-20T05:53:54;101094.44;;;5.98;100.00
21273;BME280;36726;52.328;10.552;2022-10-20T05:56:21;101094.56;;;6.01;100.00
21273;BME280;36726;52.328;10.552;2022-10-20T05:58:48;101089.50;;;6.06;100.00
21273;BME280;36726;52.328;10.552;2022-10-20T06:01:17;101089.66;;;6.10;100.00
21273;BME280;36726;52.328;10.552;2022-10-20T06:03:50;101089.75;;;6.12;100.00
21273;BME280;36726;52.328;10.552;2022-10-20T06:06:19;101092.53;;;6.16;100.00
21273;BME280;36726;52.328;10.552;2022-10-20T06:08:46;101081.28;;;6.19;100.00
21273;BME280;36726;52.328;10.552;2022-10-20T06:11:14;101080.53;;;6.23;100.00
21273;BME280;36726;52.328;10.552;2022-10-20T06:13:41;101079.81;;;6.27;100.00
21273;BME280;36726;52.328;10.552;2022-10-20T06:16:15;101084.41;;;6.32;100.00
21273;BME280;36726;52.328;10.552;2022-10-20T06:18:42;101080.97;;;6.34;100.00
21273;BME280;36726;52.328;10.552;2022-10-20T06:21:11;101069.75;;;6.39;100.00
21273;BME280;36726;52.328;10.552;2022-10-20T06:23:38;101070.00;;;6.45;100.00
21273;BME280;36726;52.328;10.552;2022-10-20T06:26:10;101064.03;;;6.49;100.00
21273;BME280;36726;52.328;10.552;2022-10-20T06:28:39;101068.66;;;6.56;100.00
21273;BME280;36726;52.328;10.552;2022-10-20T06:31:17;101069.75;;;6.63;100.00
21273;BME280;36726;52.328;10.552;2022-10-20T06:33:45;101073.59;;;6.71;100.00
21273;BME280;36726;52.328;10.552;2022-10-20T06:36:13;101077.44;;;6.80;100.00
21273;BME280;36726;52.328;10.552;2022-10-20T06:38:40;101065.66;;;6.94;100.00
21273;BME280;36726;52.328;10.552;2022-10-20T06:41:11;101072.06;;;7.02;100.00
21273;BME280;36726;52.328;10.552;2022-10-20T06:43:39;101070.53;;;7.07;100.00
21273;BME280;36726;52.328;10.552;2022-10-20T06:46:08;101067.13;;;7.11;100.00
21273;BME280;36726;52.328;10.552;2022-10-20T06:48:36;101062.88;;;7.15;100.00
21273;BME280;36726;52.328;10.552;2022-10-20T06:51:05;101056.00;;;7.18;100.00
21273;BME280;36726;52.328;10.552;2022-10-20T06:53:34;101057.03;;;7.23;100.00
21273;BME280;36726;52.328;10.552;2022-10-20T06:56:04;101057.13;;;7.26;100.00
21273;BME280;36726;52.328;10.552;2022-10-20T06:58:33;101059.94;;;7.31;100.00
21273;BME280;36726;52.328;10.552;2022-10-20T07:01:09;101070.56;;;7.34;100.00
21273;BME280;36726;52.328;10.552;2022-10-20T07:03:37;101068.97;;;7.39;100.00
21273;BME280;36726;52.328;10.552;2022-10-20T07:06:05;101075.28;;;7.44;100.00
21273;BME280;36726;52.328;10.552;2022-10-20T07:08:34;101068.38;;;7.48;100.00
21273;BME280;36726;52.328;10.552;2022-10-20T07:11:08;101069.44;;;7.53;100.00
21273;BME280;36726;52.328;10.552;2022-10-20T07:13:36;101068.66;;;7.57;100.00
21273;BME280;36726;52.328;10.552;2022-10-20T07:16:04;101061.84;;;7.62;100.00
21273;BME280;36726;52.328;10.552;2022-10-20T07:18:31;101064.59;;;7.66;99.87
21273;BME280;36726;52.328;10.552;2022-10-20T07:21:00;101057.69;;;7.70;99.67
21273;BME280;36726;52.328;10.552;2022-10-20T07:23:28;101056.97;;;7.74;99.86
21273;BME280;36726;52.328;10.552;2022-10-20T07:26:06;101068.53;;;7.79;99.53
21273;BME280;36726;52.328;10.552;2022-10-20T07:28:34;101067.78;;;7.83;99.12
21273;BME280;36726;52.328;10.552;2022-10-20T07:31:15;101066.97;;;7.85;98.92
21273;BME280;36726;52.328;10.552;2022-10-20T07:33:42;101066.25;;;7.91;98.48
21273;BME280;36726;52.328;10.552;2022-10-20T07:36:20;101062.88;;;7.95;98.43
21273;BME280;36726;52.328;10.552;2022-10-20T07:38:50;101058.66;;;8.00;98.27
21273;BME280;36726;52.328;10.552;2022-10-20T07:41:17;101054.44;;;8.05;98.18
21273;BME280;36726;52.328;10.552;2022-10-20T07:43:44;101062.47;;;8.09;97.89
21273;BME280;36726;52.328;10.552;2022-10-20T07:46:11;101061.75;;;8.15;97.84
21273;BME280;36726;52.328;10.552;2022-10-20T07:48:39;101048.75;;;8.19;97.62
21273;BME280;36726;52.328;10.552;2022-10-20T07:53:39;101051.84;;;8.34;96.94
21273;BME280;36726;52.328;10.552;2022-10-20T07:56:06;101038.88;;;8.42;97.06
21273;BME280;36726;52.328;10.552;2022-10-20T07:58:33;101040.00;;;8.50;97.14
21273;BME280;36726;52.328;10.552;2022-10-20T08:01:00;101034.88;;;8.56;95.91
21273;BME280;36726;52.328;10.552;2022-10-20T08:03:27;101021.94;;;8.64;95.70
21273;BME280;36726;52.328;10.552;2022-10-20T08:05:53;101024.78;;;8.71;96.08
21273;BME280;36726;52.328;10.552;2022-10-20T08:08:20;101011.81;;;8.79;94.42
21273;BME280;36726;52.328;10.552;2022-10-20T08:10:46;101012.88;;;8.87;94.71
21273;BME280;36726;52.328;10.552;2022-10-20T08:13:13;101003.41;;;8.93;94.25
21273;BME280;36726;52.328;10.552;2022-10-20T08:15:40;100993.09;;;9.02;93.09
21273;BME280;36726;52.328;10.552;2022-10-20T08:18:06;100992.38;;;9.09;92.98
21273;BME280;36726;52.328;10.552;2022-10-20T08:20:33;100992.63;;;9.18;93.10
21273;BME280;36726;52.328;10.552;2022-10-20T08:23:06;100969.94;;;9.26;91.90
21273;BME280;36726;52.328;10.552;2022-10-20T08:25:33;100965.72;;;9.33;91.51
21273;BME280;36726;52.328;10.552;2022-10-20T08:28:00;100958.78;;;9.38;90.24
21273;BME280;36726;52.328;10.552;2022-10-20T08:30:26;100951.03;;;9.44;90.48
21273;BME280;36726;52.328;10.552;2022-10-20T08:32:53;100966.06;;;9.50;90.60
21273;BME280;36726;52.328;10.552;2022-10-20T08:35:20;100954.75;;;9.54;89.88
21273;BME280;36726;52.328;10.552;2022-10-20T08:37:47;100959.31;;;9.61;90.08
21273;BME280;36726;52.328;10.552;2022-10-20T08:40:16;100957.69;;;9.66;89.46
21273;BME280;36726;52.328;10.552;2022-10-20T08:42:45;100953.38;;;9.71;89.83
21273;BME280;36726;52.328;10.552;2022-10-20T08:45:14;100950.84;;;9.75;90.19
21273;BME280;36726;52.328;10.552;2022-10-20T08:47:42;100956.22;;;9.80;89.47
21273;BME280;36726;52.328;10.552;2022-10-20T08:50:12;100953.66;;;9.83;89.37
21273;BME280;36726;52.328;10.552;2022-10-20T08:52:40;100952.00;;;9.88;88.05
21273;BME280;36726;52.328;10.552;2022-10-20T08:55:25;100941.50;;;9.91;87.68
21273;BME280;36726;52.328;10.552;2022-10-20T08:58:01;100960.97;;;9.94;86.84
21273;BME280;36726;52.328;10.552;2022-10-20T09:00:29;100945.19;;;9.99;86.79
21273;BME280;36726;52.328;10.552;2022-10-20T09:03:14;100948.78;;;10.02;87.04
21273;BME280;36726;52.328;10.552;2022-10-20T09:05:45;100957.66;;;10.06;86.58
21273;BME280;36726;52.328;10.552;2022-10-20T09:08:14;100966.66;;;10.11;87.38
21273;BME280;36726;52.328;10.552;2022-10-20T09:10:46;100952.59;;;10.15;87.95
21273;BME280;36726;52.328;10.552;2022-10-20T09:13:18;100958.03;;;10.21;87.42
21273;BME280;36726;52.328;10.552;2022-10-20T09:15:56;100959.03;;;10.27;87.12
21273;BME280;36726;52.328;10.552;2022-10-20T09:18:24;100942.41;;;10.33;87.05
21273;BME280;36726;52.328;10.552;2022-10-20T09:20:53;100944.28;;;10.40;87.31
21273;BME280;36726;52.328;10.552;2022-10-20T09:23:24;100936.50;;;10.48;86.24
21273;BME280;36726;52.328;10.552;2022-10-20T09:26:18;100932.28;;;10.57;86.74
21273;BME280;36726;52.328;10.552;2022-10-20T09:29:17;100916.59;;;10.66;84.86
21273;BME280;36726;52.328;10.552;2022-10-20T09:31:52;100914.09;;;10.75;86.04
21273;BME280;36726;52.328;10.552;2022-10-20T09:37:03;100913.53;;;10.94;84.75
21273;BME280;36726;52.328;10.552;2022-10-20T09:45:16;100903.31;;;11.15;83.65
21273;BME280;36726;52.328;10.552;2022-10-20T09:47:48;100900.75;;;11.21;83.37
21273;BME280;36726;52.328;10.552;2022-10-20T09:50:36;100899.97;;;11.28;83.30
21273;BME280;36726;52.328;10.552;2022-10-20T09:53:13;100900.91;;;11.32;82.63
21273;BME280;36726;52.328;10.552;2022-10-20T09:55:45;100890.38;;;11.35;81.98
21273;BME280;36726;52.328;10.552;2022-10-20T09:58:19;100886.88;;;11.37;81.94
21273;BME280;36726;52.328;10.552;2022-10-20T10:00:55;100895.75;;;11.41;82.46
21273;BME280;36726;52.328;10.552;2022-10-20T10:03:23;100897.56;;;11.45;81.98
21273;BME280;36726;52.328;10.552;2022-10-20T10:05:58;100895.88;;;11.48;81.20
21273;BME280;36726;52.328;10.552;2022-10-20T10:08:28;100895.94;;;11.52;80.89
21273;BME280;36726;52.328;10.552;2022-10-20T10:11:14;100904.81;;;11.55;81.31
21273;BME280;36726;52.328;10.552;2022-10-20T10:13:43;100901.31;;;11.59;80.99
21273;BME280;36726;52.328;10.552;2022-10-20T10:16:13;100902.25;;;11.63;80.13
21273;BME280;36726;52.328;10.552;2022-10-20T10:18:43;100890.00;;;11.68;79.93
21273;BME280;36726;52.328;10.552;2022-10-20T10:21:14;100900.66;;;11.74;80.79
21273;BME280;36726;52.328;10.552;2022-10-20T10:23:54;100884.84;;;11.78;80.41
21273;BME280;36726;52.328;10.552;2022-10-20T10:29:26;100880.59;;;11.94;79.33
21273;BME280;36726;52.328;10.552;2022-10-20T10:32:14;100874.50;;;12.02;78.96
21273;BME280;36726;52.328;10.552;2022-10-20T10:34:59;100861.34;;;12.10;78.90
21273;BME280;36726;52.328;10.552;2022-10-20T10:37:28;100866.75;;;12.17;78.46
21273;BME280;36726;52.328;10.552;2022-10-20T10:40:02;100866.81;;;12.23;77.84
21273;BME280;36726;52.328;10.552;2022-10-20T10:43:02;100862.50;;;12.33;78.18
21273;BME280;36726;52.328;10.552;2022-10-20T10:51:16;100829.22;;;12.65;76.72
21273;BME280;36726;52.328;10.552;2022-10-20T10:56:32;100817.84;;;12.84;75.18
21273;BME280;36726;52.328;10.552;2022-10-20T10:59:09;100816.16;;;12.95;75.18
21273;BME280;36726;52.328;10.552;2022-10-20T11:01:53;100811.84;;;13.03;74.23
21273;BME280;36726;52.328;10.552;2022-10-20T11:12:44;100797.84;;;13.30;72.24
21273;BME280;36726;52.328;10.552;2022-10-20T11:16:10;100796.97;;;13.37;72.38
21273;BME280;36726;52.328;10.552;2022-10-20T11:26:32;100764.28;;;13.54;69.01
21273;BME280;36726;52.328;10.552;2022-10-20T11:29:01;100753.69;;;13.61;69.03
21273;BME280;36726;52.328;10.552;2022-10-20T11:31:47;100745.75;;;13.70;68.96
21273;BME280;36726;52.328;10.552;2022-10-20T11:37:06;100748.41;;;13.85;66.49
21273;BME280;36726;52.328;10.552;2022-10-20T11:39:42;100740.47;;;13.91;66.89
21273;BME280;36726;52.328;10.552;2022-10-20T11:42:22;100739.59;;;13.98;66.88
21273;BME280;36726;52.328;10.552;2022-10-20T11:44:53;100733.41;;;14.02;65.56
21273;BME280;36726;52.328;10.552;2022-10-20T11:47:27;100729.84;;;14.03;65.93
21273;BME280;36726;52.328;10.552;2022-10-20T11:49:57;100716.56;;;14.04;65.64
21273;BME280;36726;52.328;10.552;2022-10-20T12:00:59;100714.78;;;14.20;64.30
21273;BME280;36726;52.328;10.552;2022-10-20T12:14:38;100703.25;;;14.10;63.44
21273;BME280;36726;52.328;10.552;2022-10-20T12:17:41;100689.97;;;14.07;63.23
21273;BME280;36726;52.328;10.552;2022-10-20T12:23:04;100676.66;;;14.07;64.04
21273;BME280;36726;52.328;10.552;2022-10-20T12:25:36;100669.53;;;14.06;63.61
21273;BME280;36726;52.328;10.552;2022-10-20T12:38:47;100660.69;;;14.01;65.88
21273;BME280;36726;52.328;10.552;2022-10-20T12:41:27;100669.56;;;13.99;65.80
21273;BME280;36726;52.328;10.552;2022-10-20T12:43:59;100666.88;;;13.96;65.88
21273;BME280;36726;52.328;10.552;2022-10-20T12:46:30;100667.78;;;13.92;66.45
21273;BME280;36726;52.328;10.552;2022-10-20T12:49:04;100666.91;;;13.90;66.81
21273;BME280;36726;52.328;10.552;2022-10-20T12:51:40;100666.00;;;13.89;67.06
21273;BME280;36726;52.328;10.552;2022-10-20T12:54:28;100663.34;;;13.88;66.47
21273;BME280;36726;52.328;10.552;2022-10-20T12:57:02;100665.13;;;13.89;66.95
21273;BME280;36726;52.328;10.552;2022-10-20T13:04:54;100664.25;;;13.90;67.72
21273;BME280;36726;52.328;10.552;2022-10-20T13:10:31;100654.50;;;13.92;68.23
21273;BME280;36726;52.328;10.552;2022-10-20T13:15:36;100639.41;;;13.94;67.63
21273;BME280;36726;52.328;10.552;2022-10-20T13:23:14;100620.81;;;13.97;67.09
21273;BME280;36726;52.328;10.552;2022-10-20T13:25:50;100622.56;;;13.96;66.84
21273;BME280;36726;52.328;10.552;2022-10-20T13:28:21;100637.63;;;13.97;67.37
21273;BME280;36726;52.328;10.552;2022-10-20T13:39:46;100624.34;;;14.06;66.02
21273;BME280;36726;52.328;10.552;2022-10-20T13:42:45;100636.75;;;14.10;66.41
21273;BME280;36726;52.328;10.552;2022-10-20T13:48:34;100637.63;;;14.14;65.31
21273;BME280;36726;52.328;10.552;2022-10-20T13:51:00;100639.41;;;14.19;65.79
21273;BME280;36726;52.328;10.552;2022-10-20T13:53:37;100630.53;;;14.23;65.78
21273;BME280;36726;52.328;10.552;2022-10-20T14:01:45;100618.13;;;14.36;65.00
21273;BME280;36726;52.328;10.552;2022-10-20T14:04:38;100619.00;;;14.41;65.64
21273;BME280;36726;52.328;10.552;2022-10-20T14:07:08;100617.22;;;14.43;66.02
21273;BME280;36726;52.328;10.552;2022-10-20T14:09:39;100626.13;;;14.42;65.64
21273;BME280;36726;52.328;10.552;2022-10-20T14:12:22;100615.47;;;14.40;65.84
21273;BME280;36726;52.328;10.552;2022-10-20T14:14:50;100627.00;;;14.39;66.35
21273;BME280;36726;52.328;10.552;2022-10-20T14:17:26;100619.94;;;14.37;66.58
21273;BME280;36726;52.328;10.552;2022-10-20T14:20:26;100599.53;;;14.34;66.83
21273;BME280;36726;52.328;10.552;2022-10-20T14:22:53;100599.50;;;14.30;66.78
21273;BME280;36726;52.328;10.552;2022-10-20T14:25:21;100608.41;;;14.29;67.32
21273;BME280;36726;52.328;10.552;2022-10-20T14:27:48;100608.41;;;14.29;67.17
21273;BME280;36726;52.328;10.552;2022-10-20T14:30:17;100603.06;;;14.29;67.74
21273;BME280;36726;52.328;10.552;2022-10-20T14:32:45;100613.72;;;14.30;67.56
21273;BME280;36726;52.328;10.552;2022-10-20T14:37:42;100601.31;;;14.31;67.52
21273;BME280;36726;52.328;10.552;2022-10-20T14:40:22;100603.06;;;14.32;68.14
21273;BME280;36726;52.328;10.552;2022-10-20T14:42:50;100609.28;;;14.31;68.04
21273;BME280;36726;52.328;10.552;2022-10-20T14:45:23;100604.84;;;14.27;68.11
21273;BME280;36726;52.328;10.552;2022-10-20T14:47:55;100596.84;;;14.24;68.42
21273;BME280;36726;52.328;10.552;2022-10-20T14:50:31;100584.44;;;14.20;68.26
21273;BME280;36726;52.328;10.552;2022-10-20T14:53:32;100578.22;;;14.18;68.58
21273;BME280;36726;52.328;10.552;2022-10-20T14:56:00;100571.16;;;14.17;68.51
21273;BME280;36726;52.328;10.552;2022-10-20T14:58:34;100556.97;;;14.15;69.00
21273;BME280;36726;52.328;10.552;2022-10-20T15:04:04;100547.22;;;14.11;69.12
21273;BME280;36726;52.328;10.552;2022-10-20T15:06:31;100534.78;;;14.07;69.24
21273;BME280;36726;52.328;10.552;2022-10-20T15:08:58;100509.97;;;14.05;69.29
21273;BME280;36726;52.328;10.552;2022-10-20T15:11:26;100503.78;;;14.00;69.20